VTSB

Details ICAO VTSB (URT)
Name Surat Thani
Region Thailand
Timezone Asia/Bangkok (UTC+7.0)
Plans Departing 33
Arriving 39
Stats Elevation 20 ft / 6 m (AMSL)
Location 9.132603° 99.135586°
Runways 1
Magnetic Variation 0.411° W
Sunrise 2017-12-15 23:32:33 UTC / 2017-12-16 06:32:33 Local
Sunset 2017-12-16 11:08:08 UTC / 2017-12-16 18:08:08 Local
Advertisement - Login to hide

Runways

ID Width Length Bearing (true) Bearing (mag) Surface Threshold Offset Overrun Length
04 148 ft / 45 m 9,912 ft / 3,021 m 43.98° 44.39° Asphalt 0 ft / 0 m 250 ft / 76 m
22 148 ft / 45 m 9,912 ft / 3,021 m 223.99° 224.40° Asphalt 0 ft / 0 m 230 ft / 70 m

Approach Navaids

Runway Type Ident Frequency Range Bearing (true) Bearing (mag) Slope Elevation
22 Localiser ISTN 109.50 MHz 18 nm / 33 km 223.99° 224.40° - 20 ft / 6 m (AMSL)
22 Glidescope ISTN 109.50 MHz 10 nm / 19 km 223.99° 224.40° 3.00° 18 ft / 5 m (AMSL)
22 DME ISTN 109.50 MHz 18 nm / 33 km - - - 20 ft / 6 m (AMSL)

Map

Weather


0- 5 10 15 20 25 30 35+ Temperature / ° C

Clouds and Precipitation
Forecast for 2017-12-15 18:00 UTC. Updated an hour ago

Ground ~20,000 ft ~40,000 ft Winds

METAR

Not found

TAF

TAF VTSB 151700Z 1518/1618 VRB02KT 9999 FEW020 BECMG 1520/1522 5000 BR BECMG 1601/1603 05010KT 9999 NSW

Frequencies

Ground 121.90 MHz GND
Approach 129.60 MHz APP
Tower 122.70 MHz TWR
Warning: Do not use this data for real-world aviation or navigation. No guarantee of current accuracy is given.